sensor_id;sensor_type;location;lat;lon;timestamp;pressure;altitude;pressure_sealevel;temperature
51561;BMP280;37654;51.262;17.058;2022-11-15T00:02:00;99720.56;;;4.06
51561;BMP280;37654;51.262;17.058;2022-11-15T00:04:26;99715.44;;;4.10
51561;BMP280;37654;51.262;17.058;2022-11-15T00:06:52;99715.44;;;4.10
51561;BMP280;37654;51.262;17.058;2022-11-15T00:09:17;99714.59;;;4.10
51561;BMP280;37654;51.262;17.058;2022-11-15T00:11:42;99714.63;;;4.20
51561;BMP280;37654;51.262;17.058;2022-11-15T00:14:08;99707.81;;;4.15
51561;BMP280;37654;51.262;17.058;2022-11-15T00:16:33;99704.34;;;4.06
51561;BMP280;37654;51.262;17.058;2022-11-15T00:18:59;99698.31;;;3.96
51561;BMP280;37654;51.262;17.058;2022-11-15T00:21:24;99694.03;;;3.86
51561;BMP280;37654;51.262;17.058;2022-11-15T00:23:49;99687.22;;;3.91
51561;BMP280;37654;51.262;17.058;2022-11-15T00:26:15;99691.47;;;3.89
51561;BMP280;37654;51.262;17.058;2022-11-15T00:28:41;99693.22;;;3.93
51561;BMP280;37654;51.262;17.058;2022-11-15T00:31:10;99692.34;;;3.91
51561;BMP280;37654;51.262;17.058;2022-11-15T00:33:36;99681.19;;;3.85
51561;BMP280;37654;51.262;17.058;2022-11-15T00:36:09;99681.19;;;3.81
51561;BMP280;37654;51.262;17.058;2022-11-15T00:38:36;99683.78;;;3.83
51561;BMP280;37654;51.262;17.058;2022-11-15T00:41:04;99678.63;;;3.81
51561;BMP280;37654;51.262;17.058;2022-11-15T00:43:30;99675.22;;;3.84
51561;BMP280;37654;51.262;17.058;2022-11-15T00:45:55;99681.25;;;3.94
51561;BMP280;37654;51.262;17.058;2022-11-15T00:48:21;99682.94;;;3.96
51561;BMP280;37654;51.262;17.058;2022-11-15T00:50:47;99681.19;;;3.89
51561;BMP280;37654;51.262;17.058;2022-11-15T00:53:13;99681.19;;;3.89
51561;BMP280;37654;51.262;17.058;2022-11-15T00:55:38;99674.38;;;3.84
51561;BMP280;37654;51.262;17.058;2022-11-15T00:58:04;99676.94;;;3.88
51561;BMP280;37654;51.262;17.058;2022-11-15T01:00:29;99680.34;;;3.89
51561;BMP280;37654;51.262;17.058;2022-11-15T01:02:54;99670.09;;;3.87
51561;BMP280;37654;51.262;17.058;2022-11-15T01:05:20;99670.09;;;3.84
51561;BMP280;37654;51.262;17.058;2022-11-15T01:07:46;99673.50;;;3.79
51561;BMP280;37654;51.262;17.058;2022-11-15T01:10:11;99673.47;;;3.78
51561;BMP280;37654;51.262;17.058;2022-11-15T01:12:37;99664.06;;;3.75
51561;BMP280;37654;51.262;17.058;2022-11-15T01:15:04;99668.38;;;3.81
51561;BMP280;37654;51.262;17.058;2022-11-15T01:17:30;99667.53;;;3.80
51561;BMP280;37654;51.262;17.058;2022-11-15T01:19:56;99664.06;;;3.75
51561;BMP280;37654;51.262;17.058;2022-11-15T01:22:22;99665.78;;;3.75
51561;BMP280;37654;51.262;17.058;2022-11-15T01:24:49;99664.06;;;3.74
51561;BMP280;37654;51.262;17.058;2022-11-15T01:27:15;99663.19;;;3.72
51561;BMP280;37654;51.262;17.058;2022-11-15T01:29:40;99655.53;;;3.73
51561;BMP280;37654;51.262;17.058;2022-11-15T01:32:06;99664.06;;;3.71
51561;BMP280;37654;51.262;17.058;2022-11-15T01:34:31;99654.66;;;3.70
51561;BMP280;37654;51.262;17.058;2022-11-15T01:36:56;99655.53;;;3.69
51561;BMP280;37654;51.262;17.058;2022-11-15T01:39:22;99647.84;;;3.69
51561;BMP280;37654;51.262;17.058;2022-11-15T01:41:47;99645.25;;;3.66
51561;BMP280;37654;51.262;17.058;2022-11-15T01:46:57;99635.00;;;3.61
51561;BMP280;37654;51.262;17.058;2022-11-15T01:49:24;99629.91;;;3.66
51561;BMP280;37654;51.262;17.058;2022-11-15T01:51:52;99625.63;;;3.62
51561;BMP280;37654;51.262;17.058;2022-11-15T01:54:20;99621.34;;;3.64
51561;BMP280;37654;51.262;17.058;2022-11-15T01:56:52;99622.19;;;3.63
51561;BMP280;37654;51.262;17.058;2022-11-15T01:59:18;99620.50;;;3.65
51561;BMP280;37654;51.262;17.058;2022-11-15T02:01:44;99616.22;;;3.65
51561;BMP280;37654;51.262;17.058;2022-11-15T02:04:13;99617.91;;;3.60
51561;BMP280;37654;51.262;17.058;2022-11-15T02:06:41;99601.66;;;3.55
51561;BMP280;37654;51.262;17.058;2022-11-15T02:09:08;99593.97;;;3.54
51561;BMP280;37654;51.262;17.058;2022-11-15T02:11:33;99593.13;;;3.56
51561;BMP280;37654;51.262;17.058;2022-11-15T02:14:00;99605.97;;;3.58
51561;BMP280;37654;51.262;17.058;2022-11-15T02:32:54;99586.28;;;3.51
51561;BMP280;37654;51.262;17.058;2022-11-15T02:35:41;99599.06;;;3.45
51561;BMP280;37654;51.262;17.058;2022-11-15T02:38:27;99596.50;;;3.42
51561;BMP280;37654;51.262;17.058;2022-11-15T02:41:02;99592.22;;;3.38
51561;BMP280;37654;51.262;17.058;2022-11-15T02:43:34;99593.91;;;3.35
51561;BMP280;37654;51.262;17.058;2022-11-15T02:48:46;99593.06;;;3.33
51561;BMP280;37654;51.262;17.058;2022-11-15T02:51:12;99587.91;;;3.31
51561;BMP280;37654;51.262;17.058;2022-11-15T02:53:38;99588.78;;;3.30
51561;BMP280;37654;51.262;17.058;2022-11-15T02:56:04;99581.94;;;3.32
51561;BMP280;37654;51.262;17.058;2022-11-15T03:04:37;99571.69;;;3.27
51561;BMP280;37654;51.262;17.058;2022-11-15T03:07:14;99572.53;;;3.28
51561;BMP280;37654;51.262;17.058;2022-11-15T03:12:23;99573.38;;;3.29
51561;BMP280;37654;51.262;17.058;2022-11-15T03:17:46;99571.66;;;3.25
51561;BMP280;37654;51.262;17.058;2022-11-15T03:20:15;99569.13;;;3.27
51561;BMP280;37654;51.262;17.058;2022-11-15T03:22:44;99572.53;;;3.28
51561;BMP280;37654;51.262;17.058;2022-11-15T03:25:13;99558.00;;;3.25
51561;BMP280;37654;51.262;17.058;2022-11-15T03:27:45;99554.59;;;3.24
51561;BMP280;37654;51.262;17.058;2022-11-15T03:30:12;99555.44;;;3.25
51561;BMP280;37654;51.262;17.058;2022-11-15T03:32:49;99550.31;;;3.25
51561;BMP280;37654;51.262;17.058;2022-11-15T03:35:19;99546.06;;;3.24
51561;BMP280;37654;51.262;17.058;2022-11-15T03:40:14;99541.81;;;3.28
51561;BMP280;37654;51.262;17.058;2022-11-15T03:45:22;99536.69;;;3.28
51561;BMP280;37654;51.262;17.058;2022-11-15T03:48:16;99541.84;;;3.30
51561;BMP280;37654;51.262;17.058;2022-11-15T03:50:41;99533.28;;;3.27
51561;BMP280;37654;51.262;17.058;2022-11-15T03:53:08;99536.66;;;3.26
51561;BMP280;37654;51.262;17.058;2022-11-15T03:55:34;99531.56;;;3.23
51561;BMP280;37654;51.262;17.058;2022-11-15T03:58:00;99538.34;;;3.18
51561;BMP280;37654;51.262;17.058;2022-11-15T04:00:26;99535.81;;;3.19
51561;BMP280;37654;51.262;17.058;2022-11-15T04:02:52;99530.66;;;3.15
51561;BMP280;37654;51.262;17.058;2022-11-15T04:05:17;99530.66;;;3.12
51561;BMP280;37654;51.262;17.058;2022-11-15T04:07:43;99532.38;;;3.14
51561;BMP280;37654;51.262;17.058;2022-11-15T04:10:10;99529.81;;;3.13
51561;BMP280;37654;51.262;17.058;2022-11-15T04:12:37;99534.06;;;3.14
51561;BMP280;37654;51.262;17.058;2022-11-15T04:15:08;99530.69;;;3.16
51561;BMP280;37654;51.262;17.058;2022-11-15T04:17:42;99537.50;;;3.13
51561;BMP280;37654;51.262;17.058;2022-11-15T04:20:19;99534.94;;;3.13
51561;BMP280;37654;51.262;17.058;2022-11-15T04:23:01;99533.22;;;3.09
51561;BMP280;37654;51.262;17.058;2022-11-15T04:25:42;99525.50;;;3.03
51561;BMP280;37654;51.262;17.058;2022-11-15T04:28:08;99528.91;;;3.02
51561;BMP280;37654;51.262;17.058;2022-11-15T04:30:33;99524.63;;;2.99
51561;BMP280;37654;51.262;17.058;2022-11-15T04:32:59;99523.78;;;2.99
51561;BMP280;37654;51.262;17.058;2022-11-15T04:35:24;99531.44;;;2.99
51561;BMP280;37654;51.262;17.058;2022-11-15T04:37:50;99524.63;;;2.98
51561;BMP280;37654;51.262;17.058;2022-11-15T04:40:15;99519.47;;;2.94
51561;BMP280;37654;51.262;17.058;2022-11-15T04:42:41;99528.84;;;2.93
51561;BMP280;37654;51.262;17.058;2022-11-15T04:45:10;99523.75;;;2.95
51561;BMP280;37654;51.262;17.058;2022-11-15T04:47:35;99523.72;;;2.93
51561;BMP280;37654;51.262;17.058;2022-11-15T04:50:01;99522.94;;;2.99
51561;BMP280;37654;51.262;17.058;2022-11-15T04:52:26;99521.22;;;3.02
51561;BMP280;37654;51.262;17.058;2022-11-15T04:54:52;99523.78;;;3.03
51561;BMP280;37654;51.262;17.058;2022-11-15T04:57:18;99518.69;;;3.02
51561;BMP280;37654;51.262;17.058;2022-11-15T04:59:43;99518.66;;;3.03
51561;BMP280;37654;51.262;17.058;2022-11-15T05:02:08;99518.66;;;2.98
51561;BMP280;37654;51.262;17.058;2022-11-15T05:04:34;99512.66;;;2.97
51561;BMP280;37654;51.262;17.058;2022-11-15T05:06:59;99496.44;;;2.91
51561;BMP280;37654;51.262;17.058;2022-11-15T05:09:25;99506.66;;;2.88
51561;BMP280;37654;51.262;17.058;2022-11-15T05:11:50;99508.38;;;2.87
51561;BMP280;37654;51.262;17.058;2022-11-15T05:14:16;99494.72;;;2.90
51561;BMP280;37654;51.262;17.058;2022-11-15T05:16:42;99485.34;;;2.93
51561;BMP280;37654;51.262;17.058;2022-11-15T05:19:07;99489.63;;;2.96
51561;BMP280;37654;51.262;17.058;2022-11-15T05:21:33;99485.38;;;2.96
51561;BMP280;37654;51.262;17.058;2022-11-15T05:23:59;99486.22;;;2.95
51561;BMP280;37654;51.262;17.058;2022-11-15T05:26:25;99491.34;;;2.97
51561;BMP280;37654;51.262;17.058;2022-11-15T05:28:55;99496.47;;;2.95
51561;BMP280;37654;51.262;17.058;2022-11-15T05:31:21;99487.06;;;2.97
51561;BMP280;37654;51.262;17.058;2022-11-15T05:33:48;99487.94;;;2.96
51561;BMP280;37654;51.262;17.058;2022-11-15T05:38:50;99504.19;;;3.01
51561;BMP280;37654;51.262;17.058;2022-11-15T05:41:17;99499.03;;;3.04
51561;BMP280;37654;51.262;17.058;2022-11-15T05:43:43;99499.03;;;3.04
51561;BMP280;37654;51.262;17.058;2022-11-15T05:46:09;99491.31;;;2.94
51561;BMP280;37654;51.262;17.058;2022-11-15T05:48:36;99490.47;;;2.87
51561;BMP280;37654;51.262;17.058;2022-11-15T05:51:03;99492.13;;;2.87
51561;BMP280;37654;51.262;17.058;2022-11-15T05:53:30;99490.47;;;2.87
51561;BMP280;37654;51.262;17.058;2022-11-15T05:55:55;99492.16;;;2.85
51561;BMP280;37654;51.262;17.058;2022-11-15T05:58:21;99488.75;;;2.83
51561;BMP280;37654;51.262;17.058;2022-11-15T06:00:47;99481.06;;;2.80
51561;BMP280;37654;51.262;17.058;2022-11-15T06:03:12;99488.72;;;2.82
51561;BMP280;37654;51.262;17.058;2022-11-15T06:05:39;99481.91;;;2.82
51561;BMP280;37654;51.262;17.058;2022-11-15T06:08:05;99475.94;;;2.83
51561;BMP280;37654;51.262;17.058;2022-11-15T06:10:30;99478.50;;;2.86
51561;BMP280;37654;51.262;17.058;2022-11-15T06:13:00;99481.94;;;2.88
51561;BMP280;37654;51.262;17.058;2022-11-15T06:15:26;99481.94;;;2.91
51561;BMP280;37654;51.262;17.058;2022-11-15T06:17:51;99482.81;;;2.96
51561;BMP280;37654;51.262;17.058;2022-11-15T06:20:17;99490.50;;;2.95
51561;BMP280;37654;51.262;17.058;2022-11-15T06:22:43;99492.19;;;2.94
51561;BMP280;37654;51.262;17.058;2022-11-15T06:25:08;99489.66;;;2.99
51561;BMP280;37654;51.262;17.058;2022-11-15T06:27:34;99493.91;;;2.99
51561;BMP280;37654;51.262;17.058;2022-11-15T06:29:59;99490.50;;;2.99
51561;BMP280;37654;51.262;17.058;2022-11-15T06:32:24;99498.19;;;3.03
51561;BMP280;37654;51.262;17.058;2022-11-15T06:34:50;99500.75;;;3.08
51561;BMP280;37654;51.262;17.058;2022-11-15T06:37:15;99503.34;;;3.05
51561;BMP280;37654;51.262;17.058;2022-11-15T06:39:41;99510.16;;;3.07
51561;BMP280;37654;51.262;17.058;2022-11-15T06:42:08;99509.34;;;3.13
51561;BMP280;37654;51.262;17.058;2022-11-15T06:44:33;99508.47;;;3.12
51561;BMP280;37654;51.262;17.058;2022-11-15T06:46:59;99512.75;;;3.18
51561;BMP280;37654;51.262;17.058;2022-11-15T06:49:24;99508.50;;;3.20
51561;BMP280;37654;51.262;17.058;2022-11-15T06:51:49;99507.69;;;3.29
51561;BMP280;37654;51.262;17.058;2022-11-15T06:54:15;99503.44;;;3.40
51561;BMP280;37654;51.262;17.058;2022-11-15T06:56:40;99507.72;;;3.57
51561;BMP280;37654;51.262;17.058;2022-11-15T06:59:06;99509.47;;;3.78
51561;BMP280;37654;51.262;17.058;2022-11-15T07:01:31;99514.63;;;3.92
51561;BMP280;37654;51.262;17.058;2022-11-15T07:03:56;99504.38;;;4.19
51561;BMP280;37654;51.262;17.058;2022-11-15T07:06:22;99510.34;;;4.43
51561;BMP280;37654;51.262;17.058;2022-11-15T07:08:47;99508.59;;;4.60
51561;BMP280;37654;51.262;17.058;2022-11-15T07:11:13;99508.56;;;4.70
51561;BMP280;37654;51.262;17.058;2022-11-15T07:13:38;99516.22;;;4.90
51561;BMP280;37654;51.262;17.058;2022-11-15T07:16:06;99517.03;;;5.04
51561;BMP280;37654;51.262;17.058;2022-11-15T07:18:34;99516.91;;;5.35
51561;BMP280;37654;51.262;17.058;2022-11-15T07:21:01;99523.63;;;5.55
51561;BMP280;37654;51.262;17.058;2022-11-15T07:23:27;99517.56;;;5.74
51561;BMP280;37654;51.262;17.058;2022-11-15T07:25:53;99507.97;;;5.97
51561;BMP280;37654;51.262;17.058;2022-11-15T07:28:18;99507.75;;;6.23
51561;BMP280;37654;51.262;17.058;2022-11-15T07:30:43;99495.66;;;6.32
51561;BMP280;37654;51.262;17.058;2022-11-15T07:33:09;99499.94;;;6.38
51561;BMP280;37654;51.262;17.058;2022-11-15T07:35:34;99494.72;;;6.42
51561;BMP280;37654;51.262;17.058;2022-11-15T07:38:01;99499.06;;;6.39
51561;BMP280;37654;51.262;17.058;2022-11-15T07:40:29;99499.22;;;6.18
51561;BMP280;37654;51.262;17.058;2022-11-15T07:43:05;99504.25;;;6.31
51561;BMP280;37654;51.262;17.058;2022-11-15T07:45:32;99490.34;;;6.50
51561;BMP280;37654;51.262;17.058;2022-11-15T07:48:00;99492.78;;;6.62
51561;BMP280;37654;51.262;17.058;2022-11-15T07:50:28;99494.44;;;6.70
51561;BMP280;37654;51.262;17.058;2022-11-15T07:52:56;99503.09;;;6.62
51561;BMP280;37654;51.262;17.058;2022-11-15T07:55:27;99495.34;;;6.65
51561;BMP280;37654;51.262;17.058;2022-11-15T07:58:00;99497.06;;;6.66
51561;BMP280;37654;51.262;17.058;2022-11-15T08:00:25;99491.78;;;6.78
51561;BMP280;37654;51.262;17.058;2022-11-15T08:02:51;99495.13;;;6.85
51561;BMP280;37654;51.262;17.058;2022-11-15T08:05:16;99491.81;;;6.75
51561;BMP280;37654;51.262;17.058;2022-11-15T08:07:42;99494.34;;;6.81
51561;BMP280;37654;51.262;17.058;2022-11-15T08:10:07;99496.06;;;6.80
51561;BMP280;37654;51.262;17.058;2022-11-15T08:12:33;99480.69;;;6.71
51561;BMP280;37654;51.262;17.058;2022-11-15T08:14:59;99481.53;;;6.72
51561;BMP280;37654;51.262;17.058;2022-11-15T08:17:25;99485.88;;;6.68
51561;BMP280;37654;51.262;17.058;2022-11-15T08:19:50;99494.44;;;6.70
51561;BMP280;37654;51.262;17.058;2022-11-15T08:22:16;99479.00;;;6.70
51561;BMP280;37654;51.262;17.058;2022-11-15T08:24:42;99482.38;;;6.75
51561;BMP280;37654;51.262;17.058;2022-11-15T08:27:07;99470.16;;;6.92
51561;BMP280;37654;51.262;17.058;2022-11-15T08:29:43;99471.84;;;6.96
51561;BMP280;37654;51.262;17.058;2022-11-15T08:32:09;99466.66;;;6.99
51561;BMP280;37654;51.262;17.058;2022-11-15T08:34:34;99461.47;;;7.02
51561;BMP280;37654;51.262;17.058;2022-11-15T08:37:00;99456.97;;;7.17
51561;BMP280;37654;51.262;17.058;2022-11-15T08:39:25;99461.16;;;7.25
51561;BMP280;37654;51.262;17.058;2022-11-15T08:41:51;99454.19;;;7.33
51561;BMP280;37654;51.262;17.058;2022-11-15T08:44:16;99447.19;;;7.41
51561;BMP280;37654;51.262;17.058;2022-11-15T08:46:42;99457.41;;;7.47
51561;BMP280;37654;51.262;17.058;2022-11-15T08:49:07;99462.44;;;7.56
51561;BMP280;37654;51.262;17.058;2022-11-15T08:51:33;99457.34;;;7.53
51561;BMP280;37654;51.262;17.058;2022-11-15T08:53:58;99451.22;;;7.60
51561;BMP280;37654;51.262;17.058;2022-11-15T08:56:23;99457.13;;;7.66
51561;BMP280;37654;51.262;17.058;2022-11-15T08:58:49;99456.28;;;7.65
51561;BMP280;37654;51.262;17.058;2022-11-15T09:01:17;99450.25;;;7.66
51561;BMP280;37654;51.262;17.058;2022-11-15T09:03:42;99453.75;;;7.63
51561;BMP280;37654;51.262;17.058;2022-11-15T09:06:08;99455.50;;;7.61
51561;BMP280;37654;51.262;17.058;2022-11-15T09:08:34;99457.03;;;7.72
51561;BMP280;37654;51.262;17.058;2022-11-15T09:11:03;99460.53;;;7.69
51561;BMP280;37654;51.262;17.058;2022-11-15T09:13:30;99463.81;;;7.79
51561;BMP280;37654;51.262;17.058;2022-11-15T09:16:01;99462.88;;;7.84
51561;BMP280;37654;51.262;17.058;2022-11-15T09:18:27;99460.16;;;7.91
51561;BMP280;37654;51.262;17.058;2022-11-15T09:20:56;99454.72;;;8.11
51561;BMP280;37654;51.262;17.058;2022-11-15T09:23:23;99454.53;;;8.22
51561;BMP280;37654;51.262;17.058;2022-11-15T09:25:49;99453.56;;;8.29
51561;BMP280;37654;51.262;17.058;2022-11-15T09:28:14;99455.03;;;8.42
51561;BMP280;37654;51.262;17.058;2022-11-15T09:30:39;99454.97;;;8.47
51561;BMP280;37654;51.262;17.058;2022-11-15T09:33:09;99454.03;;;8.49
51561;BMP280;37654;51.262;17.058;2022-11-15T09:35:35;99450.50;;;8.53
51561;BMP280;37654;51.262;17.058;2022-11-15T09:38:01;99447.69;;;8.66
51561;BMP280;37654;51.262;17.058;2022-11-15T09:40:27;99444.97;;;8.73
51561;BMP280;37654;51.262;17.058;2022-11-15T09:51:09;99433.75;;;9.55
51561;BMP280;37654;51.262;17.058;2022-11-15T09:53:52;99428.41;;;9.62
51561;BMP280;37654;51.262;17.058;2022-11-15T09:56:26;99423.81;;;9.75
51561;BMP280;37654;51.262;17.058;2022-11-15T09:58:55;99407.28;;;9.80
51561;BMP280;37654;51.262;17.058;2022-11-15T10:01:36;99409.66;;;9.90
51561;BMP280;37654;51.262;17.058;2022-11-15T10:04:04;99406.03;;;9.97
51561;BMP280;37654;51.262;17.058;2022-11-15T10:06:31;99398.84;;;10.08
51561;BMP280;37654;51.262;17.058;2022-11-15T10:11:37;99387.81;;;10.35
51561;BMP280;37654;51.262;17.058;2022-11-15T10:14:24;99390.53;;;10.60
51561;BMP280;37654;51.262;17.058;2022-11-15T10:17:11;99384.59;;;10.87
51561;BMP280;37654;51.262;17.058;2022-11-15T10:25:26;99367.66;;;11.32
51561;BMP280;37654;51.262;17.058;2022-11-15T10:30:46;99354.69;;;11.86
51561;BMP280;37654;51.262;17.058;2022-11-15T10:33:35;99355.53;;;12.12
51561;BMP280;37654;51.262;17.058;2022-11-15T10:36:16;99351.47;;;12.54
51561;BMP280;37654;51.262;17.058;2022-11-15T10:41:36;99338.50;;;12.76
51561;BMP280;37654;51.262;17.058;2022-11-15T10:46:33;99325.19;;;13.29
51561;BMP280;37654;51.262;17.058;2022-11-15T10:49:14;99337.47;;;13.89
51561;BMP280;37654;51.262;17.058;2022-11-15T10:54:10;99323.97;;;14.40
51561;BMP280;37654;51.262;17.058;2022-11-15T10:56:38;99320.91;;;14.70
51561;BMP280;37654;51.262;17.058;2022-11-15T10:59:04;99318.56;;;14.82
51561;BMP280;37654;51.262;17.058;2022-11-15T11:01:30;99319.28;;;14.85
51561;BMP280;37654;51.262;17.058;2022-11-15T11:04:07;99313.63;;;15.14
51561;BMP280;37654;51.262;17.058;2022-11-15T11:06:48;99312.06;;;15.10
51561;BMP280;37654;51.262;17.058;2022-11-15T11:09:33;99310.91;;;15.52
51561;BMP280;37654;51.262;17.058;2022-11-15T11:12:00;99305.00;;;15.83
51561;BMP280;37654;51.262;17.058;2022-11-15T11:14:26;99299.75;;;16.50
51561;BMP280;37654;51.262;17.058;2022-11-15T11:22:09;99293.38;;;16.55
51561;BMP280;37654;51.262;17.058;2022-11-15T11:27:40;99281.53;;;16.65
51561;BMP280;37654;51.262;17.058;2022-11-15T11:38:19;99278.22;;;17.99
51561;BMP280;37654;51.262;17.058;2022-11-15T11:40:58;99272.97;;;17.99
51561;BMP280;37654;51.262;17.058;2022-11-15T11:43:52;99276.91;;;17.92
51561;BMP280;37654;51.262;17.058;2022-11-15T11:47:03;99268.09;;;17.93
51561;BMP280;37654;51.262;17.058;2022-11-15T11:49:16;99257.75;;;17.76
51561;BMP280;37654;51.262;17.058;2022-11-15T11:57:35;99247.41;;;18.88
51561;BMP280;37654;51.262;17.058;2022-11-15T12:00:15;99244.09;;;19.77
51561;BMP280;37654;51.262;17.058;2022-11-15T12:02:47;99240.06;;;19.72
51561;BMP280;37654;51.262;17.058;2022-11-15T12:05:22;99241.84;;;19.98
51561;BMP280;37654;51.262;17.058;2022-11-15T12:07:54;99243.13;;;20.29
51561;BMP280;37654;51.262;17.058;2022-11-15T12:10:29;99232.47;;;19.68
51561;BMP280;37654;51.262;17.058;2022-11-15T12:15:32;99219.00;;;19.60
51561;BMP280;37654;51.262;17.058;2022-11-15T12:18:01;99219.81;;;19.48
51561;BMP280;37654;51.262;17.058;2022-11-15T12:20:33;99216.59;;;19.95
51561;BMP280;37654;51.262;17.058;2022-11-15T12:23:46;99208.72;;;19.95
51561;BMP280;37654;51.262;17.058;2022-11-15T12:26:06;99202.44;;;20.59
51561;BMP280;37654;51.262;17.058;2022-11-15T12:28:47;99202.72;;;21.27
51561;BMP280;37654;51.262;17.058;2022-11-15T12:31:26;99199.31;;;22.06
51561;BMP280;37654;51.262;17.058;2022-11-15T12:33:57;99200.22;;;22.61
51561;BMP280;37654;51.262;17.058;2022-11-15T12:38:58;99192.00;;;23.81
51561;BMP280;37654;51.262;17.058;2022-11-15T12:41:28;99190.41;;;23.48
51561;BMP280;37654;51.262;17.058;2022-11-15T12:43:55;99184.84;;;23.61
51561;BMP280;37654;51.262;17.058;2022-11-15T12:49:08;99167.06;;;24.15
51561;BMP280;37654;51.262;17.058;2022-11-15T13:02:23;99154.72;;;16.26
51561;BMP280;37654;51.262;17.058;2022-11-15T13:04:51;99150.59;;;16.06
51561;BMP280;37654;51.262;17.058;2022-11-15T13:10:06;99147.31;;;15.19
51561;BMP280;37654;51.262;17.058;2022-11-15T13:22:51;99153.56;;;14.07
51561;BMP280;37654;51.262;17.058;2022-11-15T13:27:49;99152.13;;;13.61
51561;BMP280;37654;51.262;17.058;2022-11-15T13:30:23;99154.66;;;13.43
51561;BMP280;37654;51.262;17.058;2022-11-15T13:32:49;99155.47;;;13.24
51561;BMP280;37654;51.262;17.058;2022-11-15T13:35:27;99151.00;;;13.27
51561;BMP280;37654;51.262;17.058;2022-11-15T13:37:54;99155.03;;;13.34
51561;BMP280;37654;51.262;17.058;2022-11-15T13:40:27;99151.28;;;13.21
51561;BMP280;37654;51.262;17.058;2022-11-15T13:42:56;99141.22;;;13.13
51561;BMP280;37654;51.262;17.058;2022-11-15T13:45:21;99142.66;;;13.00
51561;BMP280;37654;51.262;17.058;2022-11-15T13:47:55;99145.06;;;12.83
51561;BMP280;37654;51.262;17.058;2022-11-15T13:50:27;99134.25;;;12.71
51561;BMP280;37654;51.262;17.058;2022-11-15T13:52:57;99143.16;;;12.65
51561;BMP280;37654;51.262;17.058;2022-11-15T13:55:24;99133.06;;;12.58
51561;BMP280;37654;51.262;17.058;2022-11-15T13:57:56;99133.25;;;12.54
51561;BMP280;37654;51.262;17.058;2022-11-15T14:03:10;99132.00;;;12.41
51561;BMP280;37654;51.262;17.058;2022-11-15T14:05:39;99137.53;;;12.32
51561;BMP280;37654;51.262;17.058;2022-11-15T14:08:24;99140.81;;;12.37
51561;BMP280;37654;51.262;17.058;2022-11-15T14:11:26;99140.72;;;12.40
51561;BMP280;37654;51.262;17.058;2022-11-15T14:16:39;99128.28;;;12.25
51561;BMP280;37654;51.262;17.058;2022-11-15T14:19:08;99127.63;;;12.20
51561;BMP280;37654;51.262;17.058;2022-11-15T14:21:35;99124.47;;;12.12
51561;BMP280;37654;51.262;17.058;2022-11-15T14:24:18;99123.91;;;12.04
51561;BMP280;37654;51.262;17.058;2022-11-15T14:26:44;99124.22;;;11.96
51561;BMP280;37654;51.262;17.058;2022-11-15T14:29:28;99113.28;;;11.88
51561;BMP280;37654;51.262;17.058;2022-11-15T14:32:10;99120.72;;;11.74
51561;BMP280;37654;51.262;17.058;2022-11-15T14:34:36;99112.66;;;11.59
51561;BMP280;37654;51.262;17.058;2022-11-15T14:37:02;99113.13;;;11.46
51561;BMP280;37654;51.262;17.058;2022-11-15T14:39:27;99110.81;;;11.37
51561;BMP280;37654;51.262;17.058;2022-11-15T14:41:53;99109.59;;;11.22
51561;BMP280;37654;51.262;17.058;2022-11-15T14:44:18;99111.84;;;11.07
51561;BMP280;37654;51.262;17.058;2022-11-15T14:46:45;99110.81;;;10.87
51561;BMP280;37654;51.262;17.058;2022-11-15T14:49:12;99110.53;;;10.69
51561;BMP280;37654;51.262;17.058;2022-11-15T14:51:39;99106.22;;;10.42
51561;BMP280;37654;51.262;17.058;2022-11-15T14:54:04;99107.63;;;10.25
51561;BMP280;37654;51.262;17.058;2022-11-15T14:56:30;99088.31;;;10.08
51561;BMP280;37654;51.262;17.058;2022-11-15T14:58:55;99097.91;;;10.05
51561;BMP280;37654;51.262;17.058;2022-11-15T15:01:24;99099.44;;;9.82
51561;BMP280;37654;51.262;17.058;2022-11-15T15:03:50;99097.22;;;9.68
51561;BMP280;37654;51.262;17.058;2022-11-15T15:06:22;99091.81;;;9.47
51561;BMP280;37654;51.262;17.058;2022-11-15T15:08:47;99093.88;;;9.35
51561;BMP280;37654;51.262;17.058;2022-11-15T15:11:22;99094.88;;;9.29
51561;BMP280;37654;51.262;17.058;2022-11-15T15:13:48;99094.16;;;9.25
51561;BMP280;37654;51.262;17.058;2022-11-15T15:16:13;99094.19;;;9.23
51561;BMP280;37654;51.262;17.058;2022-11-15T15:18:39;99096.34;;;9.08
51561;BMP280;37654;51.262;17.058;2022-11-15T15:21:17;99101.97;;;8.89
51561;BMP280;37654;51.262;17.058;2022-11-15T15:23:43;99102.09;;;8.84
51561;BMP280;37654;51.262;17.058;2022-11-15T15:26:09;99101.31;;;8.81
51561;BMP280;37654;51.262;17.058;2022-11-15T15:28:34;99092.00;;;8.75
51561;BMP280;37654;51.262;17.058;2022-11-15T15:31:00;99082.66;;;8.70
51561;BMP280;37654;51.262;17.058;2022-11-15T15:33:26;99076.78;;;8.65
51561;BMP280;37654;51.262;17.058;2022-11-15T15:35:51;99075.69;;;8.73
51561;BMP280;37654;51.262;17.058;2022-11-15T15:38:17;99075.03;;;8.99
51561;BMP280;37654;51.262;17.058;2022-11-15T15:40:43;99074.06;;;9.04
51561;BMP280;37654;51.262;17.058;2022-11-15T15:43:08;99079.03;;;9.10
51561;BMP280;37654;51.262;17.058;2022-11-15T15:45:36;99079.09;;;9.08
51561;BMP280;37654;51.262;17.058;2022-11-15T15:48:02;99070.41;;;9.11
51561;BMP280;37654;51.262;17.058;2022-11-15T15:50:31;99075.81;;;9.02
51561;BMP280;37654;51.262;17.058;2022-11-15T15:53:00;99066.78;;;8.86
51561;BMP280;37654;51.262;17.058;2022-11-15T15:55:26;99069.63;;;8.74
51561;BMP280;37654;51.262;17.058;2022-11-15T15:57:51;99073.50;;;8.59
51561;BMP280;37654;51.262;17.058;2022-11-15T16:00:17;99074.84;;;8.39
51561;BMP280;37654;51.262;17.058;2022-11-15T16:02:43;99066.72;;;8.19
51561;BMP280;37654;51.262;17.058;2022-11-15T16:05:09;99066.13;;;8.07
51561;BMP280;37654;51.262;17.058;2022-11-15T16:07:35;99066.19;;;8.05
51561;BMP280;37654;51.262;17.058;2022-11-15T16:10:13;99071.41;;;8.01
51561;BMP280;37654;51.262;17.058;2022-11-15T16:12:40;99066.97;;;8.07
51561;BMP280;37654;51.262;17.058;2022-11-15T16:15:07;99075.63;;;8.03
51561;BMP280;37654;51.262;17.058;2022-11-15T16:17:35;99081.78;;;7.98
51561;BMP280;37654;51.262;17.058;2022-11-15T16:20:03;99085.06;;;8.06
51561;BMP280;37654;51.262;17.058;2022-11-15T16:22:28;99086.09;;;7.97
51561;BMP280;37654;51.262;17.058;2022-11-15T16:24:54;99073.44;;;7.87